sensor_id;sensor_type;location;lat;lon;timestamp;P1;durP1;ratioP1;P2;durP2;ratioP2
1957;SDS011;979;51.076;13.748;2022-07-05T00:01:41;15.00;;;14.40;;
1957;SDS011;979;51.076;13.748;2022-07-05T00:04:09;15.13;;;14.50;;
1957;SDS011;979;51.076;13.748;2022-07-05T00:06:38;15.13;;;14.67;;
1957;SDS011;979;51.076;13.748;2022-07-05T00:09:28;15.27;;;14.67;;
1957;SDS011;979;51.076;13.748;2022-07-05T00:12:02;14.90;;;14.50;;
1957;SDS011;979;51.076;13.748;2022-07-05T00:14:30;15.80;;;15.20;;
1957;SDS011;979;51.076;13.748;2022-07-05T00:16:59;15.37;;;14.63;;
1957;SDS011;979;51.076;13.748;2022-07-05T00:19:29;15.67;;;15.00;;
1957;SDS011;979;51.076;13.748;2022-07-05T00:21:57;14.47;;;14.07;;
1957;SDS011;979;51.076;13.748;2022-07-05T00:24:25;14.93;;;14.43;;
1957;SDS011;979;51.076;13.748;2022-07-05T00:26:55;14.87;;;14.40;;
1957;SDS011;979;51.076;13.748;2022-07-05T00:29:26;14.97;;;14.40;;
1957;SDS011;979;51.076;13.748;2022-07-05T00:31:56;15.37;;;14.87;;
1957;SDS011;979;51.076;13.748;2022-07-05T00:34:25;15.40;;;14.90;;
1957;SDS011;979;51.076;13.748;2022-07-05T00:36:54;16.80;;;16.10;;
1957;SDS011;979;51.076;13.748;2022-07-05T00:39:22;17.07;;;16.37;;
1957;SDS011;979;51.076;13.748;2022-07-05T00:42:00;17.00;;;16.40;;
1957;SDS011;979;51.076;13.748;2022-07-05T00:44:41;16.47;;;15.87;;
1957;SDS011;979;51.076;13.748;2022-07-05T00:47:11;16.70;;;16.00;;
1957;SDS011;979;51.076;13.748;2022-07-05T00:49:40;16.73;;;16.13;;
1957;SDS011;979;51.076;13.748;2022-07-05T00:52:13;16.40;;;15.80;;
1957;SDS011;979;51.076;13.748;2022-07-05T00:54:46;16.03;;;15.43;;
1957;SDS011;979;51.076;13.748;2022-07-05T00:57:17;15.80;;;15.30;;
1957;SDS011;979;51.076;13.748;2022-07-05T00:59:48;16.07;;;15.47;;
1957;SDS011;979;51.076;13.748;2022-07-05T01:02:16;15.80;;;15.30;;
1957;SDS011;979;51.076;13.748;2022-07-05T01:04:49;15.40;;;14.90;;
1957;SDS011;979;51.076;13.748;2022-07-05T01:07:18;15.47;;;14.87;;
1957;SDS011;979;51.076;13.748;2022-07-05T01:09:48;16.33;;;15.63;;
1957;SDS011;979;51.076;13.748;2022-07-05T01:12:18;16.60;;;15.80;;
1957;SDS011;979;51.076;13.748;2022-07-05T01:14:50;15.70;;;15.20;;
1957;SDS011;979;51.076;13.748;2022-07-05T01:17:24;15.50;;;14.80;;
1957;SDS011;979;51.076;13.748;2022-07-05T01:19:52;15.40;;;14.80;;
1957;SDS011;979;51.076;13.748;2022-07-05T01:22:23;15.33;;;14.73;;
1957;SDS011;979;51.076;13.748;2022-07-05T01:24:55;15.20;;;14.70;;
1957;SDS011;979;51.076;13.748;2022-07-05T01:27:24;15.57;;;14.77;;
1957;SDS011;979;51.076;13.748;2022-07-05T01:29:55;15.10;;;14.70;;
1957;SDS011;979;51.076;13.748;2022-07-05T01:32:23;15.20;;;14.70;;
1957;SDS011;979;51.076;13.748;2022-07-05T01:34:52;14.87;;;14.47;;
1957;SDS011;979;51.076;13.748;2022-07-05T01:37:21;15.20;;;14.70;;
1957;SDS011;979;51.076;13.748;2022-07-05T01:39:50;15.07;;;14.57;;
1957;SDS011;979;51.076;13.748;2022-07-05T01:42:24;15.30;;;14.80;;
1957;SDS011;979;51.076;13.748;2022-07-05T01:44:52;15.60;;;15.10;;
1957;SDS011;979;51.076;13.748;2022-07-05T01:47:21;15.50;;;15.03;;
1957;SDS011;979;51.076;13.748;2022-07-05T01:49:51;15.70;;;15.20;;
1957;SDS011;979;51.076;13.748;2022-07-05T01:52:25;16.37;;;15.67;;
1957;SDS011;979;51.076;13.748;2022-07-05T01:54:58;15.50;;;14.90;;
1957;SDS011;979;51.076;13.748;2022-07-05T01:57:28;16.20;;;15.60;;
1957;SDS011;979;51.076;13.748;2022-07-05T02:00:04;16.20;;;15.60;;
1957;SDS011;979;51.076;13.748;2022-07-05T02:02:39;17.80;;;17.10;;
1957;SDS011;979;51.076;13.748;2022-07-05T02:05:09;17.53;;;16.83;;
1957;SDS011;979;51.076;13.748;2022-07-05T02:07:45;17.60;;;16.90;;
1957;SDS011;979;51.076;13.748;2022-07-05T02:10:14;18.07;;;17.40;;
1957;SDS011;979;51.076;13.748;2022-07-05T02:12:45;17.43;;;16.83;;
1957;SDS011;979;51.076;13.748;2022-07-05T02:15:14;17.90;;;17.10;;
1957;SDS011;979;51.076;13.748;2022-07-05T02:17:42;19.20;;;17.73;;
1957;SDS011;979;51.076;13.748;2022-07-05T02:20:11;18.27;;;17.47;;
1957;SDS011;979;51.076;13.748;2022-07-05T02:22:40;18.73;;;17.50;;
1957;SDS011;979;51.076;13.748;2022-07-05T02:25:11;19.37;;;18.40;;
1957;SDS011;979;51.076;13.748;2022-07-05T02:27:40;19.87;;;18.70;;
1957;SDS011;979;51.076;13.748;2022-07-05T02:30:14;19.90;;;18.90;;
1957;SDS011;979;51.076;13.748;2022-07-05T02:32:43;19.27;;;18.27;;
1957;SDS011;979;51.076;13.748;2022-07-05T02:35:12;20.10;;;19.17;;
1957;SDS011;979;51.076;13.748;2022-07-05T02:37:43;19.30;;;18.30;;
1957;SDS011;979;51.076;13.748;2022-07-05T02:40:12;18.63;;;17.83;;
1957;SDS011;979;51.076;13.748;2022-07-05T02:42:47;17.13;;;16.53;;
1957;SDS011;979;51.076;13.748;2022-07-05T02:45:26;18.40;;;17.50;;
1957;SDS011;979;51.076;13.748;2022-07-05T02:47:58;17.07;;;16.13;;
1957;SDS011;979;51.076;13.748;2022-07-05T02:50:29;18.00;;;17.13;;
1957;SDS011;979;51.076;13.748;2022-07-05T02:52:57;17.63;;;16.80;;
1957;SDS011;979;51.076;13.748;2022-07-05T02:55:26;17.73;;;17.03;;
1957;SDS011;979;51.076;13.748;2022-07-05T02:57:55;17.57;;;16.47;;
1957;SDS011;979;51.076;13.748;2022-07-05T03:00:29;16.80;;;16.10;;
1957;SDS011;979;51.076;13.748;2022-07-05T03:02:57;17.00;;;16.40;;
1957;SDS011;979;51.076;13.748;2022-07-05T03:05:28;17.37;;;16.70;;
1957;SDS011;979;51.076;13.748;2022-07-05T03:08:01;16.23;;;15.63;;
1957;SDS011;979;51.076;13.748;2022-07-05T03:10:32;17.70;;;16.90;;
1957;SDS011;979;51.076;13.748;2022-07-05T03:13:03;16.03;;;15.43;;
1957;SDS011;979;51.076;13.748;2022-07-05T03:15:36;17.80;;;17.03;;
1957;SDS011;979;51.076;13.748;2022-07-05T03:18:10;17.67;;;16.87;;
1957;SDS011;979;51.076;13.748;2022-07-05T03:20:38;17.23;;;16.33;;
1957;SDS011;979;51.076;13.748;2022-07-05T03:23:09;18.07;;;17.10;;
1957;SDS011;979;51.076;13.748;2022-07-05T03:25:47;18.53;;;17.63;;
1957;SDS011;979;51.076;13.748;2022-07-05T03:28:16;17.57;;;16.90;;
1957;SDS011;979;51.076;13.748;2022-07-05T03:30:52;19.60;;;18.73;;
1957;SDS011;979;51.076;13.748;2022-07-05T03:33:22;18.67;;;17.80;;
1957;SDS011;979;51.076;13.748;2022-07-05T03:35:57;19.17;;;18.17;;
1957;SDS011;979;51.076;13.748;2022-07-05T03:38:26;18.50;;;17.60;;
1957;SDS011;979;51.076;13.748;2022-07-05T03:40:54;17.50;;;16.80;;
1957;SDS011;979;51.076;13.748;2022-07-05T03:43:25;18.50;;;17.50;;
1957;SDS011;979;51.076;13.748;2022-07-05T03:45:55;18.03;;;17.13;;
1957;SDS011;979;51.076;13.748;2022-07-05T03:48:29;17.87;;;17.17;;
1957;SDS011;979;51.076;13.748;2022-07-05T03:51:11;17.90;;;17.20;;
1957;SDS011;979;51.076;13.748;2022-07-05T03:53:41;17.57;;;16.77;;
1957;SDS011;979;51.076;13.748;2022-07-05T03:56:10;18.30;;;17.17;;
1957;SDS011;979;51.076;13.748;2022-07-05T03:58:39;19.00;;;18.00;;
1957;SDS011;979;51.076;13.748;2022-07-05T04:01:08;18.97;;;18.07;;
1957;SDS011;979;51.076;13.748;2022-07-05T04:03:37;18.77;;;17.97;;
1957;SDS011;979;51.076;13.748;2022-07-05T04:06:10;18.87;;;17.97;;
1957;SDS011;979;51.076;13.748;2022-07-05T04:08:39;19.57;;;18.23;;
1957;SDS011;979;51.076;13.748;2022-07-05T04:11:07;18.73;;;17.90;;
1957;SDS011;979;51.076;13.748;2022-07-05T04:13:41;17.70;;;16.90;;
1957;SDS011;979;51.076;13.748;2022-07-05T04:16:12;19.23;;;18.13;;
1957;SDS011;979;51.076;13.748;2022-07-05T04:18:40;19.67;;;18.77;;
1957;SDS011;979;51.076;13.748;2022-07-05T04:21:08;18.57;;;17.77;;
1957;SDS011;979;51.076;13.748;2022-07-05T04:23:40;17.37;;;16.60;;
1957;SDS011;979;51.076;13.748;2022-07-05T04:26:09;19.73;;;18.70;;
1957;SDS011;979;51.076;13.748;2022-07-05T04:28:41;19.47;;;18.53;;
1957;SDS011;979;51.076;13.748;2022-07-05T04:31:14;18.90;;;17.70;;
1957;SDS011;979;51.076;13.748;2022-07-05T04:33:45;19.03;;;18.13;;
1957;SDS011;979;51.076;13.748;2022-07-05T04:36:19;18.20;;;17.37;;
1957;SDS011;979;51.076;13.748;2022-07-05T04:38:51;18.43;;;17.43;;
1957;SDS011;979;51.076;13.748;2022-07-05T04:41:31;18.50;;;17.33;;
1957;SDS011;979;51.076;13.748;2022-07-05T04:44:05;17.00;;;16.30;;
1957;SDS011;979;51.076;13.748;2022-07-05T04:46:36;17.70;;;16.73;;
1957;SDS011;979;51.076;13.748;2022-07-05T04:49:05;18.40;;;17.60;;
1957;SDS011;979;51.076;13.748;2022-07-05T04:51:34;17.23;;;16.53;;
1957;SDS011;979;51.076;13.748;2022-07-05T04:54:06;18.57;;;17.87;;
1957;SDS011;979;51.076;13.748;2022-07-05T04:56:34;18.07;;;17.20;;
1957;SDS011;979;51.076;13.748;2022-07-05T04:59:03;18.13;;;17.20;;
1957;SDS011;979;51.076;13.748;2022-07-05T05:01:37;18.77;;;17.77;;
1957;SDS011;979;51.076;13.748;2022-07-05T05:04:06;18.90;;;17.90;;
1957;SDS011;979;51.076;13.748;2022-07-05T05:09:40;19.03;;;18.13;;
1957;SDS011;979;51.076;13.748;2022-07-05T05:12:12;18.67;;;17.87;;
1957;SDS011;979;51.076;13.748;2022-07-05T05:14:49;18.47;;;17.67;;
1957;SDS011;979;51.076;13.748;2022-07-05T05:17:22;18.63;;;17.73;;
1957;SDS011;979;51.076;13.748;2022-07-05T05:19:54;18.60;;;17.90;;
1957;SDS011;979;51.076;13.748;2022-07-05T05:22:22;19.60;;;18.80;;
1957;SDS011;979;51.076;13.748;2022-07-05T05:24:57;18.90;;;18.00;;
1957;SDS011;979;51.076;13.748;2022-07-05T05:27:28;18.00;;;17.20;;
1957;SDS011;979;51.076;13.748;2022-07-05T05:30:01;17.83;;;17.03;;
1957;SDS011;979;51.076;13.748;2022-07-05T05:32:32;17.03;;;16.23;;
1957;SDS011;979;51.076;13.748;2022-07-05T05:35:03;16.83;;;16.23;;
1957;SDS011;979;51.076;13.748;2022-07-05T05:40:33;16.73;;;16.13;;
1957;SDS011;979;51.076;13.748;2022-07-05T05:43:04;17.10;;;16.10;;
1957;SDS011;979;51.076;13.748;2022-07-05T05:45:56;16.90;;;16.20;;
1957;SDS011;979;51.076;13.748;2022-07-05T05:48:44;17.30;;;16.60;;
1957;SDS011;979;51.076;13.748;2022-07-05T05:51:14;16.80;;;16.10;;
1957;SDS011;979;51.076;13.748;2022-07-05T05:53:52;17.20;;;16.60;;
1957;SDS011;979;51.076;13.748;2022-07-05T05:56:25;16.00;;;15.40;;
1957;SDS011;979;51.076;13.748;2022-07-05T08:48:50;14.40;;;14.00;;
1957;SDS011;979;51.076;13.748;2022-07-05T08:51:21;14.37;;;13.97;;
1957;SDS011;979;51.076;13.748;2022-07-05T08:53:51;14.30;;;13.80;;
1957;SDS011;979;51.076;13.748;2022-07-05T08:56:21;14.60;;;14.10;;
1957;SDS011;979;51.076;13.748;2022-07-05T08:59:10;14.00;;;13.60;;
1957;SDS011;979;51.076;13.748;2022-07-05T09:01:38;14.10;;;13.80;;
1957;SDS011;979;51.076;13.748;2022-07-05T09:04:08;14.20;;;13.80;;
1957;SDS011;979;51.076;13.748;2022-07-05T09:06:39;14.17;;;13.87;;
1957;SDS011;979;51.076;13.748;2022-07-05T09:09:08;13.60;;;13.30;;
1957;SDS011;979;51.076;13.748;2022-07-05T09:11:37;14.37;;;13.97;;
1957;SDS011;979;51.076;13.748;2022-07-05T09:14:25;14.20;;;13.70;;
1957;SDS011;979;51.076;13.748;2022-07-05T09:16:55;14.30;;;13.90;;
1957;SDS011;979;51.076;13.748;2022-07-05T09:19:28;14.27;;;13.87;;
1957;SDS011;979;51.076;13.748;2022-07-05T09:22:01;14.73;;;14.03;;
1957;SDS011;979;51.076;13.748;2022-07-05T09:24:42;14.57;;;14.07;;
1957;SDS011;979;51.076;13.748;2022-07-05T09:27:13;14.87;;;14.37;;
1957;SDS011;979;51.076;13.748;2022-07-05T09:29:52;15.33;;;14.83;;
1957;SDS011;979;51.076;13.748;2022-07-05T09:32:28;14.30;;;13.80;;
1957;SDS011;979;51.076;13.748;2022-07-05T09:34:57;14.23;;;13.83;;
1957;SDS011;979;51.076;13.748;2022-07-05T09:37:45;14.73;;;14.33;;
1957;SDS011;979;51.076;13.748;2022-07-05T09:40:14;14.30;;;13.80;;
1957;SDS011;979;51.076;13.748;2022-07-05T09:42:46;14.40;;;14.00;;
1957;SDS011;979;51.076;13.748;2022-07-05T09:45:21;12.80;;;12.50;;
1957;SDS011;979;51.076;13.748;2022-07-05T09:47:50;15.13;;;14.40;;
1957;SDS011;979;51.076;13.748;2022-07-05T09:50:46;14.73;;;14.23;;
1957;SDS011;979;51.076;13.748;2022-07-05T09:53:43;14.70;;;14.10;;
1957;SDS011;979;51.076;13.748;2022-07-05T09:56:12;14.50;;;13.80;;
1957;SDS011;979;51.076;13.748;2022-07-05T09:58:41;14.50;;;14.10;;
1957;SDS011;979;51.076;13.748;2022-07-05T10:01:22;15.20;;;14.80;;
1957;SDS011;979;51.076;13.748;2022-07-05T10:04:02;14.00;;;13.70;;
1957;SDS011;979;51.076;13.748;2022-07-05T10:06:37;15.00;;;14.60;;
1957;SDS011;979;51.076;13.748;2022-07-05T10:09:12;15.70;;;15.00;;
1957;SDS011;979;51.076;13.748;2022-07-05T10:11:49;15.33;;;14.83;;
1957;SDS011;979;51.076;13.748;2022-07-05T10:14:21;14.60;;;14.10;;
1957;SDS011;979;51.076;13.748;2022-07-05T10:16:56;15.17;;;14.67;;
1957;SDS011;979;51.076;13.748;2022-07-05T10:19:32;14.70;;;14.20;;
1957;SDS011;979;51.076;13.748;2022-07-05T10:22:13;14.90;;;14.47;;
1957;SDS011;979;51.076;13.748;2022-07-05T10:24:45;13.17;;;12.77;;
1957;SDS011;979;51.076;13.748;2022-07-05T10:27:21;15.83;;;15.33;;
1957;SDS011;979;51.076;13.748;2022-07-05T10:29:52;14.50;;;14.10;;
1957;SDS011;979;51.076;13.748;2022-07-05T10:32:25;14.20;;;13.80;;
1957;SDS011;979;51.076;13.748;2022-07-05T12:38:37;15.00;;;14.60;;
1957;SDS011;979;51.076;13.748;2022-07-05T12:44:33;15.10;;;14.63;;
1957;SDS011;979;51.076;13.748;2022-07-05T12:47:46;14.97;;;14.57;;
1957;SDS011;979;51.076;13.748;2022-07-05T12:50:54;15.80;;;15.20;;
1957;SDS011;979;51.076;13.748;2022-07-05T12:53:51;15.20;;;14.80;;
1957;SDS011;979;51.076;13.748;2022-07-05T12:56:58;15.03;;;14.50;;
1957;SDS011;979;51.076;13.748;2022-07-05T13:00:03;14.90;;;14.50;;
1957;SDS011;979;51.076;13.748;2022-07-05T13:24:44;14.10;;;13.80;;
1957;SDS011;979;51.076;13.748;2022-07-05T13:27:38;14.00;;;13.40;;
1957;SDS011;979;51.076;13.748;2022-07-05T13:30:09;13.93;;;13.40;;
1957;SDS011;979;51.076;13.748;2022-07-05T13:36:11;15.27;;;14.57;;
1957;SDS011;979;51.076;13.748;2022-07-05T13:47:09;13.90;;;13.60;;
1957;SDS011;979;51.076;13.748;2022-07-05T14:15:39;13.60;;;13.30;;
1957;SDS011;979;51.076;13.748;2022-07-05T14:18:57;14.60;;;14.20;;
1957;SDS011;979;51.076;13.748;2022-07-05T16:44:27;12.30;;;12.00;;
1957;SDS011;979;51.076;13.748;2022-07-05T16:46:56;11.97;;;11.67;;
1957;SDS011;979;51.076;13.748;2022-07-05T16:49:33;13.50;;;12.83;;
1957;SDS011;979;51.076;13.748;2022-07-05T16:53:04;12.63;;;12.33;;
1957;SDS011;979;51.076;13.748;2022-07-05T16:55:37;12.00;;;11.60;;
1957;SDS011;979;51.076;13.748;2022-07-05T16:58:08;13.60;;;13.10;;
1957;SDS011;979;51.076;13.748;2022-07-05T17:00:47;14.07;;;13.57;;
1957;SDS011;979;51.076;13.748;2022-07-05T17:03:25;13.00;;;12.70;;
1957;SDS011;979;51.076;13.748;2022-07-05T17:06:05;13.63;;;13.20;;
1957;SDS011;979;51.076;13.748;2022-07-05T17:08:56;12.60;;;12.30;;
1957;SDS011;979;51.076;13.748;2022-07-05T17:11:25;12.40;;;11.87;;
1957;SDS011;979;51.076;13.748;2022-07-05T17:13:53;12.40;;;12.10;;
1957;SDS011;979;51.076;13.748;2022-07-05T17:16:24;12.87;;;12.30;;
1957;SDS011;979;51.076;13.748;2022-07-05T17:19:04;12.73;;;12.33;;
1957;SDS011;979;51.076;13.748;2022-07-05T17:21:38;12.20;;;11.90;;
1957;SDS011;979;51.076;13.748;2022-07-05T17:24:12;12.77;;;12.37;;
1957;SDS011;979;51.076;13.748;2022-07-05T17:26:41;12.60;;;12.30;;
1957;SDS011;979;51.076;13.748;2022-07-05T17:29:09;12.80;;;12.30;;
1957;SDS011;979;51.076;13.748;2022-07-05T17:31:49;12.43;;;11.90;;
1957;SDS011;979;51.076;13.748;2022-07-05T17:34:17;13.30;;;12.70;;
1957;SDS011;979;51.076;13.748;2022-07-05T17:36:51;12.93;;;12.53;;
1957;SDS011;979;51.076;13.748;2022-07-05T17:39:20;12.60;;;12.30;;
1957;SDS011;979;51.076;13.748;2022-07-05T17:41:53;13.33;;;12.83;;
1957;SDS011;979;51.076;13.748;2022-07-05T17:44:40;13.10;;;12.80;;
1957;SDS011;979;51.076;13.748;2022-07-05T17:47:23;13.50;;;13.00;;
1957;SDS011;979;51.076;13.748;2022-07-05T17:49:58;13.27;;;12.77;;
1957;SDS011;979;51.076;13.748;2022-07-05T17:53:07;13.63;;;13.13;;
1957;SDS011;979;51.076;13.748;2022-07-05T17:55:53;13.03;;;12.50;;
1957;SDS011;979;51.076;13.748;2022-07-05T17:58:46;12.77;;;12.23;;
1957;SDS011;979;51.076;13.748;2022-07-05T18:01:17;13.40;;;12.90;;
1957;SDS011;979;51.076;13.748;2022-07-05T18:06:49;13.57;;;13.00;;
1957;SDS011;979;51.076;13.748;2022-07-05T18:09:17;13.50;;;12.87;;
1957;SDS011;979;51.076;13.748;2022-07-05T18:11:49;13.80;;;13.20;;
1957;SDS011;979;51.076;13.748;2022-07-05T18:14:25;12.53;;;12.23;;
1957;SDS011;979;51.076;13.748;2022-07-05T18:17:02;12.97;;;12.57;;
1957;SDS011;979;51.076;13.748;2022-07-05T18:19:42;13.37;;;12.90;;
1957;SDS011;979;51.076;13.748;2022-07-05T18:22:10;13.33;;;13.03;;
1957;SDS011;979;51.076;13.748;2022-07-05T18:24:47;13.60;;;13.13;;
1957;SDS011;979;51.076;13.748;2022-07-05T18:27:15;12.33;;;11.80;;
1957;SDS011;979;51.076;13.748;2022-07-05T18:29:48;12.67;;;12.17;;
1957;SDS011;979;51.076;13.748;2022-07-05T18:32:16;12.83;;;12.33;;
1957;SDS011;979;51.076;13.748;2022-07-05T18:34:50;13.77;;;13.30;;
1957;SDS011;979;51.076;13.748;2022-07-05T18:37:21;14.80;;;13.93;;
1957;SDS011;979;51.076;13.748;2022-07-05T18:39:50;13.63;;;13.23;;
1957;SDS011;979;51.076;13.748;2022-07-05T18:42:20;13.80;;;13.30;;
1957;SDS011;979;51.076;13.748;2022-07-05T18:44:58;12.90;;;12.50;;
1957;SDS011;979;51.076;13.748;2022-07-05T18:47:30;13.27;;;12.87;;
1957;SDS011;979;51.076;13.748;2022-07-05T18:50:03;13.57;;;13.17;;
1957;SDS011;979;51.076;13.748;2022-07-05T18:52:37;13.07;;;12.67;;
1957;SDS011;979;51.076;13.748;2022-07-05T18:55:11;13.80;;;13.30;;
1957;SDS011;979;51.076;13.748;2022-07-05T18:57:39;13.70;;;13.17;;
1957;SDS011;979;51.076;13.748;2022-07-05T19:00:10;13.47;;;12.97;;
1957;SDS011;979;51.076;13.748;2022-07-05T19:02:46;13.63;;;12.93;;
1957;SDS011;979;51.076;13.748;2022-07-05T19:09:00;13.50;;;13.00;;
1957;SDS011;979;51.076;13.748;2022-07-05T19:28:53;13.90;;;13.20;;
1957;SDS011;979;51.076;13.748;2022-07-05T19:31:35;13.73;;;13.23;;
1957;SDS011;979;51.076;13.748;2022-07-05T19:34:37;13.90;;;13.23;;
1957;SDS011;979;51.076;13.748;2022-07-05T19:37:17;14.33;;;13.73;;
1957;SDS011;979;51.076;13.748;2022-07-05T19:43:21;13.60;;;13.20;;
1957;SDS011;979;51.076;13.748;2022-07-05T22:14:29;14.13;;;13.73;;
1957;SDS011;979;51.076;13.748;2022-07-05T22:17:16;14.00;;;13.60;;
1957;SDS011;979;51.076;13.748;2022-07-05T22:20:18;13.67;;;13.23;;
1957;SDS011;979;51.076;13.748;2022-07-05T22:23:20;14.00;;;13.60;;
1957;SDS011;979;51.076;13.748;2022-07-05T22:26:19;13.60;;;13.20;;
1957;SDS011;979;51.076;13.748;2022-07-05T22:29:21;13.73;;;13.20;;
1957;SDS011;979;51.076;13.748;2022-07-05T22:35:45;14.80;;;13.80;;
1957;SDS011;979;51.076;13.748;2022-07-05T22:38:19;13.63;;;13.13;;
1957;SDS011;979;51.076;13.748;2022-07-05T22:40:49;14.20;;;13.77;;
1957;SDS011;979;51.076;13.748;2022-07-05T22:43:20;14.93;;;14.17;;
1957;SDS011;979;51.076;13.748;2022-07-05T22:45:49;14.37;;;13.87;;
1957;SDS011;979;51.076;13.748;2022-07-05T22:48:21;14.97;;;14.37;;
1957;SDS011;979;51.076;13.748;2022-07-05T22:51:01;15.27;;;14.27;;
1957;SDS011;979;51.076;13.748;2022-07-05T22:53:31;15.33;;;14.53;;
1957;SDS011;979;51.076;13.748;2022-07-05T22:56:03;15.43;;;14.40;;
1957;SDS011;979;51.076;13.748;2022-07-05T22:58:31;15.37;;;14.37;;
1957;SDS011;979;51.076;13.748;2022-07-05T23:01:10;16.23;;;15.20;;
1957;SDS011;979;51.076;13.748;2022-07-05T23:03:47;20.50;;;19.50;;
1957;SDS011;979;51.076;13.748;2022-07-05T23:06:21;31.67;;;29.87;;
1957;SDS011;979;51.076;13.748;2022-07-05T23:08:52;35.40;;;33.50;;
1957;SDS011;979;51.076;13.748;2022-07-05T23:11:21;30.73;;;28.90;;
1957;SDS011;979;51.076;13.748;2022-07-05T23:13:50;29.07;;;27.60;;
1957;SDS011;979;51.076;13.748;2022-07-05T23:16:18;37.20;;;35.23;;
1957;SDS011;979;51.076;13.748;2022-07-05T23:18:47;36.80;;;34.70;;
1957;SDS011;979;51.076;13.748;2022-07-05T23:21:17;37.47;;;35.57;;
1957;SDS011;979;51.076;13.748;2022-07-05T23:23:47;37.87;;;35.97;;
1957;SDS011;979;51.076;13.748;2022-07-05T23:26:35;35.17;;;33.37;;
1957;SDS011;979;51.076;13.748;2022-07-05T23:29:06;35.30;;;33.70;;
1957;SDS011;979;51.076;13.748;2022-07-05T23:31:42;35.30;;;33.50;;
1957;SDS011;979;51.076;13.748;2022-07-05T23:34:11;32.27;;;30.57;;
1957;SDS011;979;51.076;13.748;2022-07-05T23:36:40;32.70;;;30.77;;
1957;SDS011;979;51.076;13.748;2022-07-05T23:39:15;32.20;;;30.50;;
1957;SDS011;979;51.076;13.748;2022-07-05T23:41:48;31.43;;;29.50;;
1957;SDS011;979;51.076;13.748;2022-07-05T23:44:19;32.30;;;30.37;;
1957;SDS011;979;51.076;13.748;2022-07-05T23:46:51;30.10;;;28.70;;
1957;SDS011;979;51.076;13.748;2022-07-05T23:49:26;28.47;;;27.03;;
1957;SDS011;979;51.076;13.748;2022-07-05T23:51:55;29.33;;;27.73;;
1957;SDS011;979;51.076;13.748;2022-07-05T23:54:28;28.20;;;26.90;;
1957;SDS011;979;51.076;13.748;2022-07-05T23:57:00;28.30;;;26.90;;
1957;SDS011;979;51.076;13.748;2022-07-05T23:59:31;27.00;;;25.57;;
